Time;durP1;ratioP1;P1;durP2;ratioP2;P2;SDS_P1;SDS_P2;PMS_P1;PMS_P2;Temp;Humidity;BMP_temperature;BMP_pressure;BME280_temperature;BME280_humidity;BME280_pressure;Samples;Min_cycle;Max_cycle;Signal;HPM_P1;HPM_P2
2023/08/26 00:01:47;;;;;;;21.85;19.55;;;;;;;17.18;100.00;100827.72;5116324;27;20027;-66
2023/08/26 00:04:13;;;;;;;23.10;20.20;;;;;;;17.10;100.00;100841.00;5131869;27;20046;-67
2023/08/26 00:06:38;;;;;;;17.85;14.10;;;;;;;17.04;100.00;100844.25;5134041;27;20015;-67
2023/08/26 00:09:03;;;;;;;15.75;11.13;;;;;;;17.01;98.37;100842.66;5099675;28;20505;-65
2023/08/26 00:11:29;;;;;;;13.15;11.57;;;;;;;17.00;99.52;100846.34;5108868;28;20023;-65
2023/08/26 00:13:54;;;;;;;15.88;10.98;;;;;;;16.86;97.85;100843.22;5113742;27;20105;-65
2023/08/26 00:16:20;;;;;;;15.25;10.13;;;;;;;16.78;98.54;100843.88;5107760;28;20062;-65
2023/08/26 00:18:47;;;;;;;13.07;10.60;;;;;;;16.75;98.89;100847.66;5112041;28;20023;-65
2023/08/26 00:21:16;;;;;;;16.58;12.10;;;;;;;16.51;99.92;100848.00;5111660;28;20027;-65
2023/08/26 00:23:41;;;;;;;15.35;12.00;;;;;;;16.59;99.04;100847.34;5088933;28;20031;-65
2023/08/26 00:26:09;;;;;;;16.75;11.90;;;;;;;16.58;100.00;100841.09;5092683;28;20031;-65
2023/08/26 00:28:34;;;;;;;13.80;11.55;;;;;;;16.64;99.95;100852.28;5077412;28;20044;-65
2023/08/26 00:31:03;;;;;;;17.35;11.40;;;;;;;16.76;100.00;100841.31;5093347;28;20067;-65
2023/08/26 00:33:29;;;;;;;12.43;11.07;;;;;;;16.67;98.78;100838.59;5101242;28;20024;-65
2023/08/26 00:35:54;;;;;;;12.38;10.65;;;;;;;16.54;99.95;100839.69;5092893;28;20020;-65
2023/08/26 00:38:20;;;;;;;12.18;9.48;;;;;;;16.49;98.69;100833.84;5110156;27;20023;-65
2023/08/26 00:40:45;;;;;;;15.02;8.77;;;;;;;16.40;96.96;100836.50;5094718;28;20513;-65
2023/08/26 00:43:13;;;;;;;15.77;9.40;;;;;;;16.28;98.52;100836.59;5113383;27;20023;-65
2023/08/26 00:45:42;;;;;;;10.98;7.32;;;;;;;16.24;97.71;100842.38;5094413;28;20470;-65
2023/08/26 00:48:10;;;;;;;;;;;;;;;16.63;97.50;100840.69;5095309;28;20019;-65
2023/08/26 00:50:39;;;;;;;11.93;7.28;;;;;;;16.17;95.89;100850.09;5094234;28;19918;-65
2023/08/26 00:53:05;;;;;;;11.70;7.15;;;;;;;16.08;97.67;100845.53;5112629;28;20023;-65
2023/08/26 00:55:32;;;;;;;11.30;6.63;;;;;;;15.95;97.94;100848.44;5094418;28;20039;-65
2023/08/26 00:57:57;;;;;;;9.95;6.82;;;;;;;15.86;98.46;100843.84;5120275;27;20478;-65
2023/08/26 01:00:24;;;;;;;11.57;6.35;;;;;;;15.89;97.00;100849.81;5114381;27;20049;-65
2023/08/26 01:02:49;;;;;;;7.15;5.30;;;;;;;15.78;95.52;100840.97;5109066;28;20055;-65
2023/08/26 01:05:17;;;;;;;11.25;5.97;;;;;;;15.67;96.84;100845.41;5110167;28;20020;-65
2023/08/26 01:07:45;;;;;;;10.85;6.32;;;;;;;15.70;96.04;100844.28;5111073;28;20450;-65
2023/08/26 01:10:11;;;;;;;11.20;5.63;;;;;;;15.71;96.01;100855.88;5096179;28;20474;-65
2023/08/26 01:12:50;;;;;;;9.43;5.50;;;;;;;15.56;95.96;100848.13;5079832;28;20536;-65
2023/08/26 01:15:16;;;;;;;;;;;;;;;15.83;96.08;100849.47;5088012;28;20031;-65
2023/08/26 01:17:42;;;;;;;11.48;5.70;;;;;;;15.58;95.89;100851.50;5092814;28;20002;-65
2023/08/26 01:20:09;;;;;;;9.27;4.82;;;;;;;15.54;95.68;100851.91;5090512;28;20024;-65
2023/08/26 01:22:36;;;;;;;11.40;5.30;;;;;;;15.42;96.11;100845.75;5090593;28;20039;-65
2023/08/26 01:25:02;;;;;;;7.75;5.18;;;;;;;15.30;95.58;100842.25;5097485;28;20077;-65
2023/08/26 01:27:27;;;;;;;7.50;5.07;;;;;;;15.33;96.13;100858.09;5086720;28;20463;-65
2023/08/26 01:29:54;;;;;;;12.13;5.25;;;;;;;15.35;96.66;100852.56;5091094;28;20027;-65
2023/08/26 01:32:46;;;;;;;9.13;5.63;;;;;;;15.43;96.36;100859.00;5089730;28;20028;-65
2023/08/26 01:35:22;;;;;;;14.90;5.93;;;;;;;15.44;96.96;100858.03;5078249;28;20020;-65
2023/08/26 01:37:51;;;;;;;8.82;5.03;;;;;;;15.33;95.86;100855.41;5091747;28;20028;-65
2023/08/26 01:40:19;;;;;;;11.02;5.40;;;;;;;15.17;96.28;100844.22;5090386;28;20016;-65
2023/08/26 01:42:45;;;;;;;10.25;4.75;;;;;;;15.14;95.87;100856.06;5092454;28;20110;-65
2023/08/26 01:45:12;;;;;;;9.82;4.97;;;;;;;15.10;95.59;100851.94;5090134;28;20024;-65
2023/08/26 01:47:37;;;;;;;8.15;5.43;;;;;;;15.13;95.54;100850.84;5090713;28;20129;-65
2023/08/26 01:50:03;;;;;;;8.57;4.55;;;;;;;15.17;95.59;100849.59;5085981;28;20132;-65
2023/08/26 01:52:29;;;;;;;10.18;4.95;;;;;;;15.07;95.91;100854.88;5071479;28;20418;-65
2023/08/26 01:54:54;;;;;;;9.88;4.63;;;;;;;15.03;95.66;100853.44;5104112;28;20019;-65
2023/08/26 01:57:19;;;;;;;10.32;4.85;;;;;;;15.17;95.03;100860.31;5108619;28;20160;-65
2023/08/26 01:59:45;;;;;;;7.20;4.93;;;;;;;15.07;95.48;100857.53;5110418;28;20093;-65
2023/08/26 02:02:12;;;;;;;11.07;4.68;;;;;;;14.88;95.79;100860.88;5111966;28;20136;-65
2023/08/26 02:04:38;;;;;;;10.13;4.75;;;;;;;14.90;94.24;100855.38;5134385;27;20516;-65
2023/08/26 02:07:03;;;;;;;7.65;4.40;;;;;;;14.94;95.21;100862.19;5133808;27;20031;-65
2023/08/26 02:09:29;;;;;;;9.60;4.43;;;;;;;14.90;95.35;100855.38;5136291;27;20022;-65
2023/08/26 02:11:54;;;;;;;9.75;4.78;;;;;;;14.81;94.86;100846.28;5136467;27;20023;-65
2023/08/26 02:14:20;;;;;;;6.20;4.30;;;;;;;14.66;94.78;100840.31;5127615;27;20103;-65
2023/08/26 02:16:45;;;;;;;6.70;4.50;;;;;;;14.80;96.75;100852.63;5097211;28;20417;-65
2023/08/26 02:19:10;;;;;;;10.07;4.60;;;;;;;14.76;95.23;100852.00;5117881;27;20024;-65
2023/08/26 02:21:36;;;;;;;9.98;4.85;;;;;;;14.66;95.53;100852.88;5114976;28;20023;-65
2023/08/26 02:24:01;;;;;;;7.72;4.78;;;;;;;14.80;96.13;100847.25;5115459;28;20016;-65
2023/08/26 02:26:27;;;;;;;8.65;4.95;;;;;;;14.76;95.00;100853.81;5085978;28;20097;-65
2023/08/26 02:28:52;;;;;;;11.52;5.13;;;;;;;14.67;95.87;100850.06;5112502;28;20059;-65
2023/08/26 02:31:18;;;;;;;7.93;4.35;;;;;;;14.68;95.73;100853.59;5096812;28;20024;-65
2023/08/26 02:33:48;;;;;;;7.03;5.07;;;;;;;14.62;95.37;100846.03;5115398;28;20077;-65
2023/08/26 02:36:13;;;;;;;11.18;4.95;;;;;;;14.56;95.01;100843.84;5113992;28;20023;-65
2023/08/26 02:38:39;;;;;;;8.82;4.85;;;;;;;14.61;95.32;100853.22;5096102;28;20077;-65
2023/08/26 02:41:05;;;;;;;7.40;4.75;;;;;;;14.67;95.41;100849.22;5099925;28;20443;-65
2023/08/26 02:43:30;;;;;;;10.13;4.70;;;;;;;14.61;95.75;100844.34;5113100;27;20059;-65
2023/08/26 02:45:56;;;;;;;10.27;4.82;;;;;;;14.67;96.09;100847.38;5100044;28;20421;-65
2023/08/26 02:48:24;;;;;;;13.27;5.20;;;;;;;14.63;95.97;100850.44;5094517;28;20026;-65
2023/08/26 02:50:56;;;;;;;8.10;4.70;;;;;;;14.60;95.69;100848.00;5113719;28;20027;-65
2023/08/26 02:53:24;;;;;;;9.65;4.60;;;;;;;14.44;95.37;100840.31;5106600;28;20038;-65
2023/08/26 02:55:49;;;;;;;11.57;4.78;;;;;;;14.47;96.84;100843.59;5102305;27;20495;-65
2023/08/26 02:58:15;;;;;;;7.38;4.45;;;;;;;14.45;96.18;100834.84;5094169;28;20032;-65
2023/08/26 03:00:40;;;;;;;10.73;4.55;;;;;;;14.39;97.03;100829.13;5094239;28;20482;-65
2023/08/26 03:03:06;;;;;;;9.45;4.68;;;;;;;14.45;95.88;100842.88;5101863;27;20054;-65
2023/08/26 03:05:31;;;;;;;11.35;4.80;;;;;;;14.35;95.76;100851.72;5122944;27;20024;-65
2023/08/26 03:07:56;;;;;;;9.77;4.53;;;;;;;14.32;95.19;100848.34;5104377;28;20111;-65
2023/08/26 03:10:26;;;;;;;8.38;4.47;;;;;;;14.25;96.18;100852.47;5114491;28;20042;-65
2023/08/26 03:12:54;;;;;;;10.32;4.50;;;;;;;14.19;95.99;100855.63;5113051;28;20016;-65
2023/08/26 03:15:19;;;;;;;9.40;4.63;;;;;;;14.12;96.30;100851.72;5089024;28;20070;-65
2023/08/26 03:17:45;;;;;;;9.10;4.43;;;;;;;14.20;96.21;100859.16;5090049;28;20020;-65
2023/08/26 03:20:11;;;;;;;8.77;4.85;;;;;;;14.10;95.72;100851.00;5112068;28;20027;-65
2023/08/26 03:22:36;;;;;;;8.27;4.55;;;;;;;14.06;96.21;100858.41;5131457;27;20035;-65
2023/08/26 03:25:01;;;;;;;8.70;4.53;;;;;;;14.00;96.58;100856.22;5134879;27;20117;-65
2023/08/26 03:27:27;;;;;;;7.22;4.00;;;;;;;14.04;96.61;100852.31;5112064;27;20011;-65
2023/08/26 03:29:52;;;;;;;11.15;4.70;;;;;;;14.04;96.39;100854.16;5114148;28;20110;-65
2023/08/26 03:32:18;;;;;;;6.88;4.45;;;;;;;14.00;97.04;100853.53;5112464;28;20058;-65
2023/08/26 03:34:43;;;;;;;9.60;4.20;;;;;;;13.97;96.83;100855.56;5097616;28;20050;-65
2023/08/26 03:37:08;;;;;;;8.35;4.43;;;;;;;13.99;96.87;100850.97;5104248;28;20035;-65
2023/08/26 03:39:34;;;;;;;7.68;4.38;;;;;;;13.97;97.31;100858.25;5094236;28;20450;-65
2023/08/26 03:42:02;;;;;;;7.10;3.20;;;;;;;14.17;96.79;100868.25;5078435;28;20020;-65
2023/08/26 03:44:27;;;;;;;9.00;4.07;;;;;;;13.97;97.20;100848.44;5082002;28;21114;-65
2023/08/26 03:46:55;;;;;;;8.02;5.03;;;;;;;14.02;96.99;100858.75;5087318;28;20027;-65
2023/08/26 03:49:20;;;;;;;9.60;4.90;;;;;;;13.84;97.36;100869.91;5106808;28;20118;-65
2023/08/26 03:51:46;;;;;;;10.93;4.97;;;;;;;13.92;97.07;100863.97;5110119;28;20103;-65
2023/08/26 03:54:11;;;;;;;7.07;4.43;;;;;;;13.92;97.31;100869.31;5093194;28;20023;-65
2023/08/26 03:56:37;;;;;;;9.85;4.85;;;;;;;13.84;97.58;100866.38;5113607;27;20089;-65
2023/08/26 03:59:02;;;;;;;6.32;4.63;;;;;;;13.82;97.41;100866.50;5095427;28;20019;-65
2023/08/26 04:01:29;;;;;;;11.65;4.93;;;;;;;13.81;97.76;100874.63;5113622;28;20478;-65
2023/08/26 04:03:55;;;;;;;9.43;5.30;;;;;;;13.76;97.42;100864.28;5113304;28;20067;-65
2023/08/26 04:06:20;;;;;;;6.22;4.28;;;;;;;13.88;97.42;100867.81;5118251;27;20061;-65
2023/08/26 04:08:46;;;;;;;8.00;4.80;;;;;;;13.69;97.81;100881.75;5115664;27;20019;-65
2023/08/26 04:11:11;;;;;;;6.72;5.10;;;;;;;13.63;97.92;100876.88;5115238;27;20031;-65
2023/08/26 04:13:37;;;;;;;7.55;4.57;;;;;;;13.62;98.43;100884.03;5113604;27;20096;-65
2023/08/26 04:16:03;;;;;;;9.95;5.00;;;;;;;13.46;98.54;100872.78;5113237;28;20023;-65
2023/08/26 04:18:30;;;;;;;6.53;4.70;;;;;;;13.52;98.96;100887.50;5113854;27;20047;-65
2023/08/26 04:20:55;;;;;;;12.82;4.82;;;;;;;13.53;99.00;100887.41;5112844;28;20022;-65
2023/08/26 04:23:23;;;;;;;9.23;4.55;;;;;;;13.41;99.63;100885.63;5113647;27;20106;-65
2023/08/26 04:25:51;;;;;;;7.93;4.93;;;;;;;13.43;99.57;100881.03;5092300;28;20027;-65
2023/08/26 04:28:16;;;;;;;6.95;4.70;;;;;;;13.36;99.37;100888.66;5113123;28;20015;-65
2023/08/26 04:30:44;;;;;;;13.00;4.60;;;;;;;13.30;99.70;100891.78;5106554;27;20032;-65
2023/08/26 04:33:10;;;;;;;11.68;4.55;;;;;;;13.41;99.94;100896.31;5085210;28;20015;-65
2023/08/26 04:35:36;;;;;;;7.75;4.50;;;;;;;13.24;99.69;100902.91;5091811;28;20030;-65
2023/08/26 04:38:01;;;;;;;7.82;4.30;;;;;;;13.31;99.67;100906.00;5088270;28;20034;-65
2023/08/26 04:40:27;;;;;;;8.57;4.78;;;;;;;13.35;99.85;100903.00;5111006;27;20829;-65
2023/08/26 04:42:55;;;;;;;8.13;4.47;;;;;;;13.29;99.76;100913.25;5093101;28;20019;-65
2023/08/26 04:45:22;;;;;;;11.32;5.28;;;;;;;13.22;100.00;100915.50;5112499;28;20390;-65
2023/08/26 04:47:48;;;;;;;11.13;4.63;;;;;;;13.15;100.00;100911.59;5111717;28;20027;-64
2023/08/26 04:50:15;;;;;;;7.47;4.30;;;;;;;13.15;100.00;100909.75;5085503;27;20023;-65
2023/08/26 04:52:42;;;;;;;9.48;4.40;;;;;;;13.16;100.00;100908.78;5098148;28;20028;-65
2023/08/26 04:55:08;;;;;;;10.05;4.53;;;;;;;13.10;100.00;100916.41;5094198;28;20486;-65
2023/08/26 04:57:34;;;;;;;8.93;4.15;;;;;;;13.19;100.00;100915.72;5094104;28;20024;-65
2023/08/26 04:59:59;;;;;;;6.30;4.13;;;;;;;13.21;100.00;100918.28;5089044;28;20012;-65
2023/08/26 05:02:24;;;;;;;9.98;4.68;;;;;;;13.12;100.00;100917.16;5091519;28;20023;-65
2023/08/26 05:04:53;;;;;;;6.13;4.47;;;;;;;13.11;100.00;100929.63;5071337;28;20052;-65
2023/08/26 05:07:21;;;;;;;7.10;4.00;;;;;;;13.16;100.00;100935.50;5071772;28;20062;-65
2023/08/26 05:09:47;;;;;;;3.00;2.70;;;;;;;13.31;100.00;100932.72;5082820;28;20031;-65
2023/08/26 05:12:12;;;;;;;9.55;4.60;;;;;;;13.02;100.00;100924.97;5124617;27;20046;-65
2023/08/26 05:14:38;;;;;;;9.05;4.50;;;;;;;13.12;100.00;100936.69;5091869;28;20035;-65
2023/08/26 05:17:03;;;;;;;10.07;5.20;;;;;;;13.21;100.00;100935.19;5092041;28;20063;-65
2023/08/26 05:19:29;;;;;;;7.97;4.60;;;;;;;13.14;100.00;100933.91;5091269;28;20034;-65
2023/08/26 05:21:54;;;;;;;7.80;4.65;;;;;;;13.20;100.00;100936.13;5091819;28;20455;-65
2023/08/26 05:24:19;;;;;;;9.50;4.70;;;;;;;13.18;100.00;100924.72;5090232;28;20031;-65
2023/08/26 05:26:45;;;;;;;12.63;5.05;;;;;;;13.22;100.00;100923.50;5090741;28;20058;-65
2023/08/26 05:29:10;;;;;;;7.68;5.57;;;;;;;13.23;100.00;100932.38;5097848;28;20498;-65
2023/08/26 05:31:36;;;;;;;9.98;5.00;;;;;;;13.39;100.00;100930.34;5110639;28;20072;-65
2023/08/26 05:34:01;;;;;;;10.25;5.22;;;;;;;13.29;100.00;100921.28;5098776;28;20032;-65
2023/08/26 05:36:27;;;;;;;8.60;5.07;;;;;;;13.35;100.00;100928.84;5106154;28;20027;-65
2023/08/26 05:38:53;;;;;;;7.25;4.78;;;;;;;13.34;100.00;100925.31;5114922;28;20023;-65
2023/08/26 05:41:18;;;;;;;9.90;5.13;;;;;;;13.42;100.00;100932.78;5114983;28;20028;-65
2023/08/26 05:43:44;;;;;;;8.68;5.07;;;;;;;13.38;100.00;100917.91;5115226;28;20094;-65
2023/08/26 05:46:09;;;;;;;10.48;5.72;;;;;;;13.41;100.00;100925.72;5114623;27;20081;-65
2023/08/26 05:48:35;;;;;;;11.75;5.03;;;;;;;13.47;100.00;100921.72;5116146;28;20028;-65
2023/08/26 05:51:00;;;;;;;7.25;5.40;;;;;;;13.53;100.00;100915.94;5115589;28;20472;-65
2023/08/26 05:53:29;;;;;;;10.30;5.90;;;;;;;13.66;100.00;100924.75;5114520;28;20593;-65
2023/08/26 05:55:55;;;;;;;16.33;6.28;;;;;;;13.59;100.00;100910.16;5115953;28;20027;-65
2023/08/26 05:58:20;;;;;;;9.25;6.40;;;;;;;13.66;100.00;100924.75;5109824;28;20073;-65
2023/08/26 06:00:47;;;;;;;12.77;6.65;;;;;;;13.65;100.00;100920.38;5095532;28;20050;-65
2023/08/26 06:03:13;;;;;;;8.35;5.45;;;;;;;13.80;100.00;100924.56;5101915;28;20050;-65
2023/08/26 06:05:38;;;;;;;10.38;6.63;;;;;;;13.83;99.98;100919.00;5115320;28;20020;-65
2023/08/26 06:08:05;;;;;;;11.07;6.30;;;;;;;13.93;99.85;100929.84;5115638;28;20128;-65
2023/08/26 06:10:31;;;;;;;12.77;6.88;;;;;;;13.84;99.90;100918.00;5101808;27;20035;-65
2023/08/26 06:12:57;;;;;;;11.63;7.03;;;;;;;13.94;99.83;100923.53;5118124;27;20023;-65
2023/08/26 06:15:22;;;;;;;11.15;6.88;;;;;;;14.02;99.55;100914.91;5118765;27;20023;-65
2023/08/26 06:17:48;;;;;;;12.65;6.22;;;;;;;14.07;99.17;100920.78;5116795;27;20383;-65
2023/08/26 06:20:13;;;;;;;12.02;6.93;;;;;;;14.03;98.81;100919.28;5114991;28;20505;-65
2023/08/26 06:22:39;;;;;;;10.35;6.65;;;;;;;14.11;99.02;100916.03;5115483;28;20471;-64
2023/08/26 06:25:04;;;;;;;11.90;6.68;;;;;;;14.09;98.49;100922.38;5115460;28;20642;-65
2023/08/26 06:27:30;;;;;;;12.10;6.97;;;;;;;14.10;98.75;100923.22;5115532;28;20495;-65
2023/08/26 06:29:58;;;;;;;9.98;6.47;;;;;;;14.12;98.13;100915.94;5116462;27;20019;-65
2023/08/26 06:32:23;;;;;;;11.23;6.05;;;;;;;14.20;99.75;100920.66;5115361;28;20053;-65
2023/08/26 06:34:51;;;;;;;9.80;6.03;;;;;;;14.21;97.19;100912.53;5096450;28;20024;-65
2023/08/26 06:37:16;;;;;;;10.15;6.10;;;;;;;14.27;98.12;100904.03;5115035;27;20070;-65
2023/08/26 06:39:42;;;;;;;9.07;6.25;;;;;;;14.43;97.49;100924.25;5135724;27;20106;-65
2023/08/26 06:42:10;;;;;;;8.05;6.30;;;;;;;14.50;96.94;100929.00;5135949;27;20034;-65
2023/08/26 06:44:36;;;;;;;4.20;3.50;;;;;;;14.72;96.59;100919.31;5117382;27;20064;-64
2023/08/26 06:47:01;;;;;;;11.20;6.28;;;;;;;14.66;95.50;100909.94;5117211;27;20023;-65
2023/08/26 06:49:27;;;;;;;16.77;6.05;;;;;;;14.76;95.29;100894.84;5132920;27;20027;-64
2023/08/26 06:51:52;;;;;;;11.50;6.18;;;;;;;14.82;94.95;100903.34;5116784;27;20031;-64
2023/08/26 06:54:17;;;;;;;10.63;5.53;;;;;;;14.83;94.23;100897.88;5116880;27;20027;-64
2023/08/26 06:56:43;;;;;;;10.95;5.75;;;;;;;14.95;94.17;100896.91;5135206;27;20031;-64
2023/08/26 06:59:08;;;;;;;9.60;5.40;;;;;;;15.11;93.94;100899.16;5117425;27;20066;-64
2023/08/26 07:01:34;;;;;;;10.07;4.97;;;;;;;15.24;93.27;100908.91;5114654;28;20019;-64
2023/08/26 07:04:07;;;;;;;9.57;5.63;;;;;;;15.28;93.08;100919.25;5095683;28;20046;-65
2023/08/26 07:06:33;;;;;;;9.45;5.10;;;;;;;15.46;93.35;100916.88;5114489;28;20020;-64
2023/08/26 07:09:00;;;;;;;7.35;4.90;;;;;;;15.50;92.51;100921.03;5097309;28;20027;-64
2023/08/26 07:11:25;;;;;;;8.40;4.95;;;;;;;15.71;92.67;100918.41;5114654;28;20030;-65
2023/08/26 07:13:51;;;;;;;12.65;4.90;;;;;;;15.66;91.00;100917.91;5114468;28;20028;-65
2023/08/26 07:16:16;;;;;;;9.90;5.53;;;;;;;15.66;90.79;100909.84;5121569;27;20373;-65
2023/08/26 07:18:42;;;;;;;8.80;5.15;;;;;;;15.88;90.48;100917.84;5126065;27;20108;-65
2023/08/26 07:21:08;;;;;;;10.55;5.72;;;;;;;15.90;89.53;100915.88;5095803;28;20023;-64
2023/08/26 07:23:33;;;;;;;8.75;5.20;;;;;;;16.02;89.23;100921.19;5100820;28;20154;-65
2023/08/26 07:25:58;;;;;;;8.82;4.95;;;;;;;16.00;88.68;100915.09;5075375;28;20490;-64
2023/08/26 07:28:24;;;;;;;7.25;4.15;;;;;;;16.00;88.96;100915.97;5097368;27;20020;-65
2023/08/26 07:30:51;;;;;;;8.38;4.60;;;;;;;16.10;89.31;100919.56;5114177;28;20522;-64
2023/08/26 07:33:17;;;;;;;7.90;4.82;;;;;;;16.08;88.71;100923.34;5113296;28;20107;-64
2023/08/26 07:35:43;;;;;;;6.43;4.25;;;;;;;16.24;89.85;100920.22;5113469;28;20104;-65
2023/08/26 07:38:09;;;;;;;8.98;4.43;;;;;;;16.34;88.92;100927.31;5114220;28;20055;-64
2023/08/26 07:40:35;;;;;;;9.68;4.55;;;;;;;16.42;88.79;100924.00;5095594;27;20110;-65
2023/08/26 07:43:00;;;;;;;7.90;4.30;;;;;;;16.34;88.24;100921.09;5114715;27;20062;-64
2023/08/26 07:45:26;;;;;;;12.55;4.28;;;;;;;16.42;88.38;100923.16;5095146;28;20381;-65
2023/08/26 07:47:54;;;;;;;13.68;4.55;;;;;;;16.49;89.29;100911.72;5113083;28;20049;-65
2023/08/26 07:50:19;;;;;;;9.85;4.47;;;;;;;16.76;87.73;100921.91;5113363;28;20095;-65
2023/08/26 07:52:44;;;;;;;4.38;3.55;;;;;;;16.79;87.52;100920.78;5113909;28;20114;-64
2023/08/26 07:55:10;;;;;;;8.10;3.65;;;;;;;16.97;87.72;100926.38;5130962;27;20054;-65
2023/08/26 07:57:36;;;;;;;7.35;3.88;;;;;;;16.94;86.22;100927.53;5097432;27;20037;-65
2023/08/26 08:00:05;;;;;;;6.70;3.67;;;;;;;16.94;86.09;100930.22;5133170;27;20023;-65
2023/08/26 08:02:31;;;;;;;;;;;;;;;17.28;85.68;100945.16;5133828;27;20087;-64
2023/08/26 08:04:56;;;;;;;7.53;3.50;;;;;;;17.07;84.57;100932.66;5133609;27;19907;-64
2023/08/26 08:07:22;;;;;;;6.13;3.80;;;;;;;17.21;86.96;100932.25;5133987;27;20427;-64
2023/08/26 08:09:47;;;;;;;7.00;3.78;;;;;;;17.34;85.49;100932.00;5113313;27;20031;-64
2023/08/26 08:12:14;;;;;;;5.90;3.30;;;;;;;17.39;83.79;100931.59;5133980;27;20101;-64
2023/08/26 08:14:43;;;;;;;5.22;3.22;;;;;;;17.44;82.35;100924.81;5122977;27;20147;-64
2023/08/26 08:17:11;;;;;;;11.75;3.55;;;;;;;17.56;82.33;100919.28;5113203;28;20034;-64
2023/08/26 08:19:45;;;;;;;6.82;3.40;;;;;;;17.60;82.48;100913.50;5132860;27;20031;-65
2023/08/26 08:22:11;;;;;;;5.82;3.60;;;;;;;17.71;81.45;100925.97;5133870;27;20462;-64
2023/08/26 08:24:37;;;;;;;7.20;3.28;;;;;;;18.01;81.72;100914.22;5133665;27;20367;-65
2023/08/26 08:27:02;;;;;;;8.18;3.42;;;;;;;18.13;80.47;100917.59;5115060;27;20030;-64
2023/08/26 08:29:28;;;;;;;7.13;3.28;;;;;;;18.12;79.64;100916.75;5098505;28;20035;-64
2023/08/26 08:31:53;;;;;;;7.57;3.42;;;;;;;18.33;79.93;100913.03;5112977;28;20086;-64
2023/08/26 08:34:18;;;;;;;6.57;2.80;;;;;;;18.65;79.63;100922.56;5094332;28;20032;-64
2023/08/26 08:36:44;;;;;;;7.50;3.28;;;;;;;18.63;75.54;100920.03;5094747;28;20539;-64
2023/08/26 08:39:11;;;;;;;5.93;2.83;;;;;;;18.81;77.26;100915.59;5131411;27;20023;-64
2023/08/26 08:41:41;;;;;;;6.15;3.20;;;;;;;19.02;76.68;100919.88;5124303;27;20030;-64
2023/08/26 08:44:13;;;;;;;9.70;2.65;;;;;;;18.92;74.80;100930.72;5094692;28;20027;-64
2023/08/26 08:46:39;;;;;;;6.30;2.95;;;;;;;19.03;74.64;100930.53;5112810;28;20016;-64
2023/08/26 08:49:06;;;;;;;4.95;2.80;;;;;;;19.26;74.77;100925.56;5112328;28;20020;-64
2023/08/26 08:51:34;;;;;;;5.47;2.97;;;;;;;19.27;74.71;100939.91;5105843;27;20447;-64
2023/08/26 08:54:01;;;;;;;6.10;3.20;;;;;;;19.37;73.88;100919.13;5092038;28;20367;-64
2023/08/26 08:56:29;;;;;;;4.35;2.50;;;;;;;19.34;73.79;100932.91;5092091;28;20467;-64
2023/08/26 08:58:56;;;;;;;3.83;2.50;;;;;;;19.37;72.83;100942.53;5097669;28;20061;-64
2023/08/26 09:01:24;;;;;;;4.40;2.50;;;;;;;19.10;72.28;100938.88;5105067;28;20482;-64
2023/08/26 09:03:49;;;;;;;5.55;2.63;;;;;;;19.13;74.13;100943.97;5111536;27;20048;-64
2023/08/26 09:06:17;;;;;;;4.63;2.72;;;;;;;18.99;72.42;100957.94;5111987;28;20462;-64
2023/08/26 09:08:44;;;;;;;4.55;2.40;;;;;;;19.08;73.11;100957.03;5106638;28;20031;-64
2023/08/26 09:11:12;;;;;;;5.88;3.00;;;;;;;18.94;72.66;100938.66;5100016;28;20383;-63
2023/08/26 09:13:37;;;;;;;5.22;2.70;;;;;;;19.11;74.39;100934.31;5104190;27;20051;-64
2023/08/26 09:16:04;;;;;;;7.22;2.70;;;;;;;19.07;73.13;100958.03;5093806;28;20466;-64
2023/08/26 09:18:30;;;;;;;5.03;3.08;;;;;;;19.31;72.08;100954.78;5111871;28;20023;-64
2023/08/26 09:20:55;;;;;;;5.82;2.80;;;;;;;19.23;71.93;100954.69;5111900;28;20023;-64
2023/08/26 09:23:21;;;;;;;3.75;2.50;;;;;;;19.11;70.83;100955.88;5113298;27;20019;-64
2023/08/26 09:25:58;;;;;;;5.25;2.63;;;;;;;19.34;71.24;100961.72;5112016;28;20069;-63
2023/08/26 09:28:24;;;;;;;4.03;2.90;;;;;;;19.48;72.04;100951.28;5112142;28;20023;-64
2023/08/26 09:31:03;;;;;;;6.22;2.63;;;;;;;19.84;71.61;100953.19;5093646;28;20027;-64
2023/08/26 09:33:31;;;;;;;3.35;2.25;;;;;;;19.90;69.50;100964.19;5112096;28;20104;-64
2023/08/26 09:35:58;;;;;;;3.60;2.30;;;;;;;19.70;68.83;100963.50;5094662;28;20535;-64
2023/08/26 09:38:24;;;;;;;3.15;1.75;;;;;;;19.59;68.81;100969.09;5111818;28;20035;-63
2023/08/26 09:40:54;;;;;;;2.75;2.42;;;;;;;19.48;68.15;100962.06;5112072;28;20024;-63
2023/08/26 09:43:20;;;;;;;6.63;2.17;;;;;;;19.50;69.11;100967.28;5093838;28;20066;-63
2023/08/26 09:45:47;;;;;;;4.38;2.72;;;;;;;19.27;69.92;100954.25;5094562;28;20019;-64
2023/08/26 09:48:21;;;;;;;5.95;2.53;;;;;;;19.56;69.76;100966.72;5077121;28;20023;-63
2023/08/26 09:50:46;;;;;;;4.75;2.20;;;;;;;19.73;69.42;100965.88;5111505;28;20394;-64
2023/08/26 09:53:11;;;;;;;3.92;2.28;;;;;;;20.15;69.17;100954.47;5112082;28;20039;-63
2023/08/26 09:55:39;;;;;;;3.95;2.53;;;;;;;20.18;66.58;100951.44;5094838;28;20428;-63
2023/08/26 09:58:04;;;;;;;5.30;2.70;;;;;;;20.38;67.90;100960.22;5111798;28;20027;-64
2023/08/26 10:00:30;;;;;;;3.88;2.22;;;;;;;20.40;66.51;100968.16;5093247;28;20528;-64
2023/08/26 10:03:06;;;;;;;5.38;2.40;;;;;;;20.18;66.74;100962.25;5111723;28;20481;-63
2023/08/26 10:05:37;;;;;;;4.05;2.40;;;;;;;20.45;66.82;100971.25;5093978;28;20071;-64
2023/08/26 10:08:08;;;;;;;5.63;2.58;;;;;;;20.61;66.74;100955.16;5111807;28;20027;-63
2023/08/26 10:10:50;;;;;;;6.72;2.40;;;;;;;20.67;66.18;100966.34;5093322;28;20024;-64
2023/08/26 10:13:22;;;;;;;3.95;2.45;;;;;;;20.32;65.12;100963.53;5111638;28;20115;-64
2023/08/26 10:15:51;;;;;;;5.20;2.30;;;;;;;20.15;65.98;100967.97;5094239;28;20020;-63
2023/08/26 10:18:41;;;;;;;3.65;2.22;;;;;;;19.90;66.21;100957.94;5073266;28;20390;-63
2023/08/26 10:21:07;;;;;;;5.78;2.05;;;;;;;19.94;66.03;100972.81;5101521;28;20063;-64
2023/08/26 10:23:36;;;;;;;6.28;2.60;;;;;;;19.98;67.47;100974.22;5106640;28;20058;-63
2023/08/26 10:26:02;;;;;;;3.92;2.35;;;;;;;20.15;66.64;100973.38;5106090;27;20019;-64
2023/08/26 10:28:29;;;;;;;3.78;1.92;;;;;;;20.42;65.11;100976.97;5104664;27;20030;-63
2023/08/26 10:30:57;;;;;;;6.13;2.42;;;;;;;20.62;66.64;100972.25;5131029;27;20072;-64
2023/08/26 10:33:23;;;;;;;4.60;2.33;;;;;;;21.12;66.33;100973.31;5080301;28;20423;-64
2023/08/26 10:35:59;;;;;;;4.43;2.25;;;;;;;21.11;62.99;100967.06;5115009;28;20064;-63
2023/08/26 10:38:25;;;;;;;2.30;2.00;;;;;;;21.40;60.31;100973.97;5123728;27;20028;-63
2023/08/26 10:41:10;;;;;;;2.90;1.90;;;;;;;21.77;62.20;100969.00;5117229;27;20031;-64
2023/08/26 10:43:36;;;;;;;2.95;1.65;;;;;;;22.06;59.50;100966.81;5117189;27;20030;-64
2023/08/26 10:46:01;;;;;;;2.97;1.95;;;;;;;22.40;57.29;100964.78;5105534;28;20023;-64
2023/08/26 10:48:27;;;;;;;3.58;1.52;;;;;;;22.36;57.22;100973.47;5096797;28;20039;-64
2023/08/26 10:51:00;;;;;;;2.95;1.88;;;;;;;22.27;57.37;100969.91;5114709;28;20031;-64
2023/08/26 10:53:26;;;;;;;4.18;1.50;;;;;;;;;;5114837;28;20028;-63
2023/08/26 10:55:52;;;;;;;5.07;1.83;;;;;;;22.42;58.54;100970.06;5116155;27;20509;-64
2023/08/26 10:58:21;;;;;;;2.63;1.60;;;;;;;22.45;56.07;100961.59;5101651;28;20027;-63
2023/08/26 11:00:52;;;;;;;5.53;2.10;;;;;;;22.55;57.50;100961.38;5094418;28;20024;-64
2023/08/26 11:03:19;;;;;;;2.85;1.70;;;;;;;22.19;54.89;100964.47;5094250;28;20059;-63
2023/08/26 11:05:46;;;;;;;4.15;2.17;;;;;;;22.13;56.72;100948.88;5105434;27;20423;-63
2023/08/26 11:08:12;;;;;;;3.95;1.98;;;;;;;22.28;56.96;100954.50;5114601;28;20046;-64
2023/08/26 11:10:40;;;;;;;4.68;1.73;;;;;;;22.56;55.00;100944.09;5114721;28;20055;-63
2023/08/26 11:13:10;;;;;;;3.45;1.45;;;;;;;22.68;56.61;100948.16;5096652;28;20050;-63
2023/08/26 11:15:41;;;;;;;4.20;1.75;;;;;;;23.30;56.02;100950.16;5121444;27;20496;-63
2023/08/26 11:18:09;;;;;;;3.45;1.80;;;;;;;23.39;53.61;100948.25;5099852;27;20492;-63
2023/08/26 11:20:35;;;;;;;4.45;1.92;;;;;;;23.17;51.98;100947.16;5134111;27;20474;-63